createdAt,value
2024-01-18T00:00:14.246Z,97400.09
2024-01-18T00:03:01.979Z,97400.05
2024-01-18T00:05:29.581Z,97400.36
2024-01-18T00:07:57.095Z,97397.19
2024-01-18T00:10:28.183Z,97393.02
2024-01-18T00:12:56.143Z,97392.83
2024-01-18T00:15:24.041Z,97388.73
2024-01-18T00:17:51.871Z,97390.58
2024-01-18T00:20:19.554Z,97383.77
2024-01-18T00:22:47.031Z,97386.45
2024-01-18T00:25:14.532Z,97384.09
2024-01-18T00:27:42.464Z,97383.90
2024-01-18T00:30:10.498Z,97382.34
2024-01-18T00:32:38.046Z,97381.64
2024-01-18T00:35:06.106Z,97383.52
2024-01-18T00:37:33.595Z,97384.30
2024-01-18T00:40:01.192Z,97378.61
2024-01-18T00:42:28.746Z,97372.27
2024-01-18T00:44:56.313Z,97360.81
2024-01-18T00:47:23.828Z,97366.06
2024-01-18T00:49:51.305Z,97370.46
2024-01-18T00:52:18.801Z,97362.27
2024-01-18T00:54:46.256Z,97360.05
2024-01-18T00:57:13.821Z,97361.23
2024-01-18T00:59:41.276Z,97361.23
2024-01-18T01:02:09.484Z,97359.85
2024-01-18T01:04:37.039Z,97358.11
2024-01-18T01:07:04.885Z,97369.71
2024-01-18T01:09:32.486Z,97366.77
2024-01-18T01:12:00.493Z,97370.81
2024-01-18T01:14:27.968Z,97375.56
2024-01-18T01:16:55.652Z,97373.16
2024-01-18T01:19:23.113Z,97375.20
2024-01-18T01:21:50.609Z,97369.70
2024-01-18T01:24:18.157Z,97367.60
2024-01-18T01:26:45.727Z,97368.23
2024-01-18T01:29:13.236Z,97366.67
2024-01-18T01:31:40.713Z,97372.45
2024-01-18T01:34:08.254Z,97373.47
2024-01-18T01:36:36.012Z,97370.73
2024-01-18T01:39:04.745Z,97366.27
2024-01-18T01:41:32.314Z,97365.40
2024-01-18T01:44:00.907Z,97361.14
2024-01-18T01:46:29.560Z,97359.93
2024-01-18T01:49:01.619Z,97358.88
2024-01-18T01:51:55.656Z,97358.66
2024-01-18T01:54:26.743Z,97358.61
2024-01-18T01:56:55.990Z,97366.11
2024-01-18T01:59:24.728Z,97367.33
2024-01-18T02:01:53.342Z,97365.95
2024-01-18T02:04:21.913Z,97360.50
2024-01-18T02:06:54.864Z,97350.94
2024-01-18T02:09:22.931Z,97349.05
2024-01-18T02:11:50.601Z,97352.77
2024-01-18T02:14:19.601Z,97349.33
2024-01-18T02:16:47.087Z,97351.45
2024-01-18T02:19:15.084Z,97353.15
2024-01-18T02:21:42.816Z,97352.09
2024-01-18T02:24:34.067Z,97354.95
2024-01-18T02:27:01.663Z,97353.73
2024-01-18T02:29:29.184Z,97355.23
2024-01-18T02:31:57.863Z,97351.92
2024-01-18T02:34:26.525Z,97353.61
2024-01-18T02:36:54.343Z,97355.98
2024-01-18T02:39:22.694Z,97355.84
2024-01-18T02:41:50.421Z,97354.31
2024-01-18T02:44:18.397Z,97355.36
2024-01-18T02:46:45.977Z,97353.79
2024-01-18T02:49:13.534Z,97350.70
2024-01-18T02:51:41.187Z,97347.97
2024-01-18T02:54:08.773Z,97354.29
2024-01-18T02:56:36.398Z,97359.27
2024-01-18T02:59:03.872Z,97359.77
2024-01-18T03:01:32.358Z,97359.46
2024-01-18T03:04:00.222Z,97361.52
2024-01-18T03:06:28.052Z,97364.92
2024-01-18T03:08:55.579Z,97365.77
2024-01-18T03:11:23.202Z,97363.89
2024-01-18T03:13:50.727Z,97365.56
2024-01-18T03:16:18.213Z,97366.23
2024-01-18T03:18:47.740Z,97367.73
2024-01-18T03:21:16.318Z,97364.23
2024-01-18T03:23:43.838Z,97364.16
2024-01-18T03:26:13.054Z,97360.30
2024-01-18T03:28:40.566Z,97361.75
2024-01-18T03:31:12.969Z,97365.98
2024-01-18T03:33:40.570Z,97377.94
2024-01-18T03:36:11.403Z,97374.48
2024-01-18T03:38:39.021Z,97380.27
2024-01-18T03:41:06.507Z,97380.73
2024-01-18T03:43:34.064Z,97383.30
2024-01-18T03:46:02.441Z,97383.67
2024-01-18T03:48:30.084Z,97389.96
2024-01-18T03:50:57.833Z,97390.30
2024-01-18T03:53:25.360Z,97393.86
2024-01-18T03:55:52.857Z,97405.09
2024-01-18T03:58:20.369Z,97405.27
2024-01-18T04:00:48.104Z,97415.05
2024-01-18T04:03:15.876Z,97420.19
2024-01-18T04:05:43.633Z,97429.42
2024-01-18T04:08:11.782Z,97433.35
2024-01-18T04:10:39.329Z,97435.95
2024-01-18T04:13:06.860Z,97437.91
2024-01-18T04:15:34.541Z,97438.67
2024-01-18T04:18:02.315Z,97436.80
2024-01-18T04:20:31.530Z,97436.98
2024-01-18T04:22:59.614Z,97443.65
2024-01-18T04:25:27.097Z,97446.54
2024-01-18T04:27:54.642Z,97452.48
2024-01-18T04:30:22.254Z,97458.57
2024-01-18T04:32:49.862Z,97457.90
2024-01-18T04:35:17.607Z,97461.58
2024-01-18T04:37:45.226Z,97461.48
2024-01-18T04:40:12.827Z,97456.55
2024-01-18T04:42:40.621Z,97456.92
2024-01-18T04:45:08.868Z,97450.80
2024-01-18T04:47:36.834Z,97452.08
2024-01-18T04:50:05.019Z,97457.79
2024-01-18T04:52:33.399Z,97461.04
2024-01-18T04:55:05.514Z,97466.29
2024-01-18T04:57:34.428Z,97468.73
2024-01-18T05:00:03.264Z,97473.02
2024-01-18T05:02:30.858Z,97478.34
2024-01-18T05:04:58.497Z,97470.86
2024-01-18T05:07:26.460Z,97464.41
2024-01-18T05:09:54.144Z,97471.63
2024-01-18T05:12:21.724Z,97477.45
2024-01-18T05:14:49.278Z,97480.02
2024-01-18T05:17:17.528Z,97484.98
2024-01-18T05:19:45.055Z,97493.55
2024-01-18T05:22:12.683Z,97499.41
2024-01-18T05:24:42.050Z,97499.65
2024-01-18T05:27:11.005Z,97500.34
2024-01-18T05:29:38.507Z,97498.00
2024-01-18T05:32:06.216Z,97502.16
2024-01-18T05:34:33.903Z,97504.94
2024-01-18T05:37:01.697Z,97506.30
2024-01-18T05:39:29.279Z,97512.98
2024-01-18T05:41:56.916Z,97517.64
2024-01-18T05:44:24.405Z,97523.21
2024-01-18T05:46:52.313Z,97525.65
2024-01-18T05:49:19.909Z,97527.39
2024-01-18T05:51:47.623Z,97532.23
2024-01-18T05:54:15.224Z,97539.43
2024-01-18T05:56:42.819Z,97546.48
2024-01-18T05:59:10.345Z,97549.95
2024-01-18T06:01:37.883Z,97549.67
2024-01-18T06:04:05.570Z,97555.35
2024-01-18T06:06:33.261Z,97557.89
2024-01-18T06:09:01.095Z,97559.71
2024-01-18T06:11:28.863Z,97567.66
2024-01-18T06:13:56.381Z,97570.21
2024-01-18T06:16:23.915Z,97575.29
2024-01-18T06:18:51.604Z,97587.05
2024-01-18T06:21:19.279Z,97585.85
2024-01-18T06:23:46.882Z,97590.02
2024-01-18T06:26:14.507Z,97589.75
2024-01-18T06:28:42.960Z,97585.17
2024-01-18T06:31:10.630Z,97578.40
2024-01-18T06:33:38.459Z,97573.84
2024-01-18T06:36:08.921Z,97577.63
2024-01-18T06:38:36.782Z,97583.29
2024-01-18T06:41:04.529Z,97577.36
2024-01-18T06:43:32.017Z,97573.45
2024-01-18T06:45:59.667Z,97575.80
2024-01-18T06:48:27.558Z,97576.29
2024-01-18T06:50:56.726Z,97575.92
2024-01-18T06:53:29.927Z,97582.02
2024-01-18T06:55:58.036Z,97583.67
2024-01-18T06:58:26.629Z,97594.52
2024-01-18T07:00:54.259Z,97598.42
2024-01-18T07:03:23.023Z,97608.77
2024-01-18T07:05:50.939Z,97615.38
2024-01-18T07:08:18.689Z,97624.77
2024-01-18T07:10:49.293Z,97627.82
2024-01-18T07:13:20.862Z,97631.53
2024-01-18T07:15:48.621Z,97630.80
2024-01-18T07:18:16.408Z,97637.44
2024-01-18T07:20:44.156Z,97651.49
2024-01-18T07:23:11.762Z,97663.86
2024-01-18T07:25:39.342Z,97670.95
2024-01-18T07:28:07.102Z,97669.52
2024-01-18T07:30:35.127Z,97664.33
2024-01-18T07:33:03.053Z,97663.56
2024-01-18T07:35:30.687Z,97676.96
2024-01-18T07:37:59.792Z,97685.20
2024-01-18T07:40:27.454Z,97683.20
2024-01-18T07:42:55.387Z,97691.66
2024-01-18T07:45:23.373Z,97698.37
2024-01-18T07:47:51.389Z,97700.80
2024-01-18T07:50:30.238Z,97708.33
2024-01-18T07:53:03.615Z,97714.55
2024-01-18T07:55:32.208Z,97715.95
2024-01-18T07:58:02.054Z,97722.11
2024-01-18T08:00:29.898Z,97720.22
2024-01-18T08:02:57.739Z,97710.15
2024-01-18T08:05:25.596Z,97719.19
2024-01-18T08:07:53.268Z,97723.31
2024-01-18T08:10:20.883Z,97722.98
2024-01-18T08:12:50.336Z,97735.05
2024-01-18T08:15:17.986Z,97752.61
2024-01-18T08:17:45.775Z,97759.60
2024-01-18T08:20:16.454Z,97762.52
2024-01-18T08:22:44.454Z,97759.44
2024-01-18T08:25:12.653Z,97766.59
2024-01-18T08:27:41.565Z,97765.05
2024-01-18T08:30:10.096Z,97765.41
2024-01-18T08:32:38.352Z,97774.34
2024-01-18T08:35:07.992Z,97779.83
2024-01-18T08:37:37.129Z,97781.56
2024-01-18T08:40:05.953Z,97774.97
2024-01-18T08:42:33.614Z,97774.20
2024-01-18T08:45:01.779Z,97777.81
2024-01-18T08:47:29.654Z,97784.77
2024-01-18T08:49:57.257Z,97793.85
2024-01-18T08:52:24.951Z,97792.89
2024-01-18T08:54:53.262Z,97791.61
2024-01-18T08:57:21.286Z,97795.57
2024-01-18T08:59:49.027Z,97801.83
2024-01-18T09:02:23.643Z,97801.90
2024-01-18T09:04:52.889Z,97803.71
2024-01-18T09:07:21.452Z,97803.76
2024-01-18T09:09:49.445Z,97807.96
2024-01-18T09:12:17.414Z,97807.95
2024-01-18T09:14:45.925Z,97814.34
2024-01-18T09:17:18.224Z,97813.53
2024-01-18T09:19:46.481Z,97816.50
2024-01-18T09:22:16.426Z,97820.38
2024-01-18T09:24:44.237Z,97820.76
2024-01-18T09:27:12.587Z,97819.66
2024-01-18T09:29:40.348Z,97819.20
2024-01-18T09:32:08.338Z,97822.53
2024-01-18T09:34:35.964Z,97823.63
2024-01-18T09:37:03.775Z,97832.16
2024-01-18T09:39:32.279Z,97837.39
2024-01-18T09:42:02.625Z,97838.72
2024-01-18T09:44:33.643Z,97839.19
2024-01-18T09:47:05.356Z,97839.95
2024-01-18T09:49:37.021Z,97847.73
2024-01-18T09:52:05.462Z,97844.08
2024-01-18T09:54:34.488Z,97834.90
2024-01-18T09:57:03.107Z,97830.34
2024-01-18T09:59:33.962Z,97851.80
2024-01-18T10:02:02.921Z,97868.55
2024-01-18T10:04:32.645Z,97876.23
2024-01-18T10:07:01.608Z,97877.02
2024-01-18T10:09:30.745Z,97870.63
2024-01-18T10:11:58.322Z,97861.90
2024-01-18T10:14:43.184Z,97850.33
2024-01-18T10:17:19.888Z,97862.37
2024-01-18T10:19:50.837Z,97875.23
2024-01-18T10:22:20.049Z,97888.80
2024-01-18T10:24:48.141Z,97903.05
2024-01-18T10:27:16.351Z,97892.16
2024-01-18T10:29:44.194Z,97882.84
2024-01-18T10:32:11.964Z,97892.95
2024-01-18T10:34:40.820Z,97894.73
2024-01-18T10:37:13.664Z,97891.45
2024-01-18T10:39:42.763Z,97891.28
2024-01-18T10:42:12.260Z,97891.55
2024-01-18T10:44:42.523Z,97889.93
2024-01-18T10:47:18.938Z,97888.77
2024-01-18T10:49:47.048Z,97895.12
2024-01-18T10:52:16.940Z,97894.58
2024-01-18T10:54:54.430Z,97897.48
2024-01-18T10:57:28.056Z,97899.48
2024-01-18T10:59:56.516Z,97906.52
2024-01-18T11:02:26.027Z,97912.58
2024-01-18T11:04:55.824Z,97911.05
2024-01-18T11:07:24.864Z,97910.43
2024-01-18T11:09:54.445Z,97910.26
2024-01-18T11:12:23.896Z,97916.71
2024-01-18T11:14:54.534Z,97915.87
2024-01-18T11:17:22.669Z,97912.92
2024-01-18T11:19:51.146Z,97911.02
2024-01-18T11:22:27.018Z,97915.64
2024-01-18T11:25:04.735Z,97923.20
2024-01-18T11:27:50.774Z,97931.23
2024-01-18T11:30:52.072Z,97930.89
2024-01-18T11:33:22.888Z,97935.09
2024-01-18T11:35:50.737Z,97936.61
2024-01-18T11:38:25.741Z,97936.00
2024-01-18T11:40:57.497Z,97930.70
2024-01-18T11:43:57.084Z,97935.79
2024-01-18T11:46:49.961Z,97931.52
2024-01-18T11:49:17.886Z,97928.71
2024-01-18T11:51:48.355Z,97928.57
2024-01-18T11:54:20.988Z,97934.75
2024-01-18T11:56:56.475Z,97945.11
2024-01-18T11:59:24.269Z,97943.06
2024-01-18T12:01:51.849Z,97934.79
2024-01-18T12:04:19.712Z,97926.13
2024-01-18T12:06:47.483Z,97930.77
2024-01-18T12:09:16.456Z,97928.62
2024-01-18T12:11:44.284Z,97932.84
2024-01-18T12:14:12.197Z,97932.37
2024-01-18T12:16:40.362Z,97938.39
2024-01-18T12:19:11.244Z,97943.77
2024-01-18T12:21:39.351Z,97950.69
2024-01-18T12:24:06.992Z,97953.69
2024-01-18T12:26:36.420Z,97950.05
2024-01-18T12:29:04.957Z,97956.27
2024-01-18T12:31:34.748Z,97957.89
2024-01-18T12:34:02.697Z,97960.15
2024-01-18T12:36:31.385Z,97970.16
2024-01-18T12:38:59.310Z,97978.88
2024-01-18T12:41:27.352Z,97977.78
2024-01-18T12:43:55.049Z,97972.80
2024-01-18T12:46:23.281Z,97968.15
2024-01-18T12:48:51.391Z,97978.36
2024-01-18T12:51:20.025Z,97989.34
2024-01-18T12:53:49.041Z,97997.86
2024-01-18T12:56:17.658Z,98000.56
2024-01-18T12:58:47.847Z,98002.81
2024-01-18T13:01:34.333Z,97993.52
2024-01-18T13:04:23.670Z,97996.94
2024-01-18T13:07:01.502Z,98002.52
2024-01-18T13:09:34.146Z,98002.09
2024-01-18T13:12:05.586Z,98009.84
2024-01-18T13:14:36.989Z,98018.15
2024-01-18T13:17:05.511Z,98019.95
2024-01-18T13:19:39.508Z,98032.79
2024-01-18T13:22:11.155Z,98028.95
2024-01-18T13:24:39.126Z,98032.44
2024-01-18T13:27:06.757Z,98034.41
2024-01-18T13:29:34.639Z,98036.95
2024-01-18T13:32:02.692Z,98036.99
2024-01-18T13:34:33.707Z,98036.60
2024-01-18T13:37:04.872Z,98039.39
2024-01-18T13:39:34.886Z,98045.25
2024-01-18T13:42:02.444Z,98052.60
2024-01-18T13:44:29.967Z,98048.96
2024-01-18T13:46:57.487Z,98053.82
2024-01-18T13:49:27.753Z,98055.12
2024-01-18T13:51:55.772Z,98059.54
2024-01-18T13:54:23.618Z,98064.13
2024-01-18T13:56:51.174Z,98064.38
2024-01-18T13:59:18.668Z,98064.64
2024-01-18T14:01:46.809Z,98066.58
2024-01-18T14:04:14.371Z,98078.09
2024-01-18T14:06:42.128Z,98077.70
2024-01-18T14:09:09.854Z,98074.52
2024-01-18T14:11:37.482Z,98078.83
2024-01-18T14:14:05.034Z,98082.50
2024-01-18T14:16:32.643Z,98089.20
2024-01-18T14:19:00.233Z,98092.16
2024-01-18T14:21:28.740Z,98089.48
2024-01-18T14:23:57.968Z,98090.35
2024-01-18T14:26:25.714Z,98085.08
2024-01-18T14:28:53.997Z,98081.85
2024-01-18T14:31:22.474Z,98081.91
2024-01-18T14:33:50.148Z,98093.59
2024-01-18T14:36:17.827Z,98092.31
2024-01-18T14:38:45.377Z,98094.23
2024-01-18T14:41:13.728Z,98100.27
2024-01-18T14:43:41.273Z,98109.55
2024-01-18T14:46:08.821Z,98116.59
2024-01-18T14:48:36.636Z,98122.05
2024-01-18T14:51:04.523Z,98121.90
2024-01-18T14:53:32.167Z,98134.24
2024-01-18T14:55:59.674Z,98144.19
2024-01-18T14:58:27.655Z,98149.04
2024-01-18T15:00:55.765Z,98151.83
2024-01-18T15:03:23.317Z,98162.14
2024-01-18T15:05:50.911Z,98162.20
2024-01-18T15:08:18.437Z,98161.58
2024-01-18T15:10:46.028Z,98152.08
2024-01-18T15:13:14.804Z,98152.63
2024-01-18T15:15:43.460Z,98161.88
2024-01-18T15:18:11.167Z,98171.81
2024-01-18T15:20:38.809Z,98174.08
2024-01-18T15:23:07.680Z,98180.59
2024-01-18T15:25:35.573Z,98183.85
2024-01-18T15:28:03.165Z,98190.52
2024-01-18T15:30:31.378Z,98195.86
2024-01-18T15:32:58.986Z,98198.61
2024-01-18T15:35:29.048Z,98207.48
2024-01-18T15:37:56.585Z,98216.55
2024-01-18T15:40:24.520Z,98227.65
2024-01-18T15:42:52.152Z,98233.62
2024-01-18T15:45:19.880Z,98238.59
2024-01-18T15:47:47.646Z,98251.77
2024-01-18T15:50:15.197Z,98257.93
2024-01-18T15:52:45.147Z,98264.98
2024-01-18T15:55:15.424Z,98266.76
2024-01-18T15:57:43.181Z,98273.25
2024-01-18T16:00:11.431Z,98276.70
2024-01-18T16:02:39.018Z,98278.09
2024-01-18T16:05:08.154Z,98274.37
2024-01-18T16:07:36.102Z,98271.31
2024-01-18T16:10:05.034Z,98276.96
2024-01-18T16:12:33.634Z,98283.10
2024-01-18T16:15:01.395Z,98280.05
2024-01-18T16:17:29.112Z,98273.73
2024-01-18T16:19:56.849Z,98272.03
2024-01-18T16:22:25.696Z,98277.48
2024-01-18T16:24:53.384Z,98280.05
2024-01-18T16:27:21.169Z,98286.70
2024-01-18T16:30:01.224Z,98295.89
2024-01-18T16:32:34.351Z,98302.36
2024-01-18T16:35:04.360Z,98307.13
2024-01-18T16:37:32.495Z,98317.35
2024-01-18T16:40:00.443Z,98321.45
2024-01-18T16:42:28.505Z,98324.50
2024-01-18T16:44:56.258Z,98321.77
2024-01-18T16:47:23.842Z,98321.10
2024-01-18T16:49:51.586Z,98327.23
2024-01-18T16:52:19.219Z,98330.48
2024-01-18T16:54:46.898Z,98333.06
2024-01-18T16:57:22.432Z,98329.47
2024-01-18T16:59:55.301Z,98336.77
2024-01-18T17:02:23.060Z,98335.23
2024-01-18T17:04:51.189Z,98335.06
2024-01-18T17:07:21.221Z,98343.57
2024-01-18T17:09:49.023Z,98346.50
2024-01-18T17:12:16.661Z,98345.15
2024-01-18T17:14:44.459Z,98343.98
2024-01-18T17:17:12.330Z,98354.20
2024-01-18T17:19:39.937Z,98356.09
2024-01-18T17:22:10.775Z,98358.48
2024-01-18T17:24:38.586Z,98360.36
2024-01-18T17:27:07.503Z,98360.35
2024-01-18T17:29:35.143Z,98364.45
2024-01-18T17:32:03.677Z,98368.05
2024-01-18T17:34:32.215Z,98372.66
2024-01-18T17:36:59.825Z,98377.80
2024-01-18T17:39:27.968Z,98392.48
2024-01-18T17:41:55.542Z,98395.90
2024-01-18T17:44:24.376Z,98407.86
2024-01-18T17:46:57.257Z,98408.03
2024-01-18T17:49:26.245Z,98412.64
2024-01-18T17:51:53.958Z,98418.95
2024-01-18T17:54:21.808Z,98418.95
2024-01-18T17:56:49.453Z,98415.38
2024-01-18T17:59:17.196Z,98418.78
2024-01-18T18:01:44.764Z,98424.91
2024-01-18T18:04:12.301Z,98428.50
2024-01-18T18:06:40.143Z,98432.08
2024-01-18T18:09:08.339Z,98440.62
2024-01-18T18:11:35.957Z,98443.70
2024-01-18T18:14:04.754Z,98455.81
2024-01-18T18:16:32.300Z,98456.66
2024-01-18T18:18:59.871Z,98454.80
2024-01-18T18:21:27.764Z,98459.74
2024-01-18T18:23:55.331Z,98460.79
2024-01-18T18:26:24.410Z,98463.17
2024-01-18T18:28:54.729Z,98467.79
2024-01-18T18:31:23.610Z,98476.14
2024-01-18T18:33:51.460Z,98478.70
2024-01-18T18:36:19.055Z,98482.96
2024-01-18T18:38:47.330Z,98486.21
2024-01-18T18:41:15.003Z,98495.23
2024-01-18T18:43:43.638Z,98499.84
2024-01-18T18:46:11.300Z,98502.90
2024-01-18T18:48:38.868Z,98508.54
2024-01-18T18:51:07.625Z,98507.84
2024-01-18T18:53:36.138Z,98513.30
2024-01-18T18:56:03.956Z,98515.48
2024-01-18T18:58:31.473Z,98519.75
2024-01-18T19:01:00.439Z,98522.96
2024-01-18T19:03:30.956Z,98525.66
2024-01-18T19:05:58.949Z,98530.09
2024-01-18T19:08:26.820Z,98537.73
2024-01-18T19:10:55.889Z,98539.23
2024-01-18T19:13:24.721Z,98539.21
2024-01-18T19:15:53.132Z,98550.26
2024-01-18T19:18:22.010Z,98556.02
2024-01-18T19:20:50.498Z,98561.11
2024-01-18T19:23:18.159Z,98559.39
2024-01-18T19:25:45.825Z,98562.10
2024-01-18T19:28:14.050Z,98564.13
2024-01-18T19:30:41.558Z,98566.83
2024-01-18T19:33:09.186Z,98575.48
2024-01-18T19:35:36.841Z,98579.20
2024-01-18T19:38:04.934Z,98585.48
2024-01-18T19:40:32.776Z,98585.97
2024-01-18T19:43:00.318Z,98591.23
2024-01-18T19:45:28.215Z,98602.92
2024-01-18T19:47:56.262Z,98611.05
2024-01-18T19:50:24.333Z,98617.99
2024-01-18T19:52:56.153Z,98618.81
2024-01-18T19:55:24.433Z,98624.41
2024-01-18T19:57:53.078Z,98627.44
2024-01-18T20:00:22.073Z,98628.77
2024-01-18T20:02:49.660Z,98628.91
2024-01-18T20:05:17.752Z,98633.46
2024-01-18T20:07:45.369Z,98638.02
2024-01-18T20:10:13.039Z,98644.10
2024-01-18T20:12:40.614Z,98648.64
2024-01-18T20:15:08.461Z,98647.73
2024-01-18T20:17:36.057Z,98653.13
2024-01-18T20:20:04.094Z,98659.70
2024-01-18T20:22:31.919Z,98667.79
2024-01-18T20:24:59.544Z,98677.08
2024-01-18T20:27:27.685Z,98684.30
2024-01-18T20:29:56.289Z,98689.99
2024-01-18T20:32:26.070Z,98694.34
2024-01-18T20:34:55.480Z,98699.91
2024-01-18T20:37:23.129Z,98706.98
2024-01-18T20:39:50.710Z,98714.40
2024-01-18T20:42:18.475Z,98718.97
2024-01-18T20:44:46.013Z,98720.66
2024-01-18T20:47:13.727Z,98721.50
2024-01-18T20:49:41.886Z,98729.30
2024-01-18T20:52:09.488Z,98730.96
2024-01-18T20:54:37.023Z,98742.17
2024-01-18T20:57:05.663Z,98744.20
2024-01-18T20:59:33.161Z,98746.07
2024-01-18T21:02:00.773Z,98750.29
2024-01-18T21:04:28.367Z,98758.24
2024-01-18T21:06:56.451Z,98761.12
2024-01-18T21:09:24.829Z,98759.41
2024-01-18T21:11:52.416Z,98762.45
2024-01-18T21:14:20.213Z,98767.69
2024-01-18T21:16:48.459Z,98772.61
2024-01-18T21:19:16.140Z,98773.42
2024-01-18T21:21:43.787Z,98777.48
2024-01-18T21:24:11.347Z,98784.21
2024-01-18T21:26:38.905Z,98785.17
2024-01-18T21:29:06.791Z,98785.84
2024-01-18T21:31:34.750Z,98789.35
2024-01-18T21:34:05.911Z,98791.52
2024-01-18T21:36:33.486Z,98795.53
2024-01-18T21:39:00.991Z,98803.66
2024-01-18T21:41:29.043Z,98806.73
2024-01-18T21:43:56.773Z,98805.58
2024-01-18T21:46:24.407Z,98809.73
2024-01-18T21:48:52.229Z,98814.89
2024-01-18T21:51:20.154Z,98815.64
2024-01-18T21:53:48.340Z,98822.16
2024-01-18T21:56:17.169Z,98833.10
2024-01-18T21:58:46.306Z,98837.78
2024-01-18T22:01:14.148Z,98837.86
2024-01-18T22:03:44.425Z,98843.89
2024-01-18T22:06:16.013Z,98848.41
2024-01-18T22:08:44.995Z,98855.77
2024-01-18T22:11:12.649Z,98861.42
2024-01-18T22:13:40.310Z,98867.21
2024-01-18T22:16:08.860Z,98871.17
2024-01-18T22:18:39.122Z,98870.88
2024-01-18T22:21:07.039Z,98873.34
2024-01-18T22:23:34.788Z,98882.38
2024-01-18T22:26:02.357Z,98884.98
2024-01-18T22:28:29.863Z,98888.42
2024-01-18T22:30:57.411Z,98893.06
2024-01-18T22:33:25.153Z,98893.09
2024-01-18T22:35:52.958Z,98891.52
2024-01-18T22:38:20.656Z,98896.38
2024-01-18T22:40:48.155Z,98899.70
2024-01-18T22:43:15.753Z,98904.54
2024-01-18T22:45:43.581Z,98908.21
2024-01-18T22:48:12.714Z,98912.86
2024-01-18T22:50:40.579Z,98917.33
2024-01-18T22:53:08.205Z,98923.52
2024-01-18T22:55:36.210Z,98923.10
2024-01-18T22:58:03.895Z,98923.55
2024-01-18T23:00:33.985Z,98924.98
2024-01-18T23:03:01.654Z,98930.33
2024-01-18T23:05:29.360Z,98937.70
2024-01-18T23:07:57.088Z,98938.61
2024-01-18T23:10:24.664Z,98941.55
2024-01-18T23:12:52.241Z,98944.15
2024-01-18T23:15:19.775Z,98952.36
2024-01-18T23:17:47.360Z,98959.52
2024-01-18T23:20:14.962Z,98961.95
2024-01-18T23:22:42.484Z,98966.60
2024-01-18T23:25:10.084Z,98972.94
2024-01-18T23:27:37.640Z,98974.20
2024-01-18T23:30:06.622Z,98976.44
2024-01-18T23:32:34.235Z,98977.56
2024-01-18T23:35:01.902Z,98979.72
2024-01-18T23:37:29.413Z,98986.64
2024-01-18T23:39:56.980Z,98988.45
2024-01-18T23:42:24.624Z,98994.02
2024-01-18T23:44:52.170Z,98994.33
2024-01-18T23:47:19.884Z,98996.48
2024-01-18T23:49:47.419Z,98998.65
2024-01-18T23:52:14.977Z,99007.91
2024-01-18T23:54:42.529Z,99011.79
2024-01-18T23:57:10.006Z,99016.30
2024-01-18T23:59:37.704Z,99021.55
